createdAt,value
2023-05-18T00:01:16.841Z,9.16
2023-05-18T00:03:43.632Z,8.82
2023-05-18T00:06:10.564Z,8.75
2023-05-18T00:08:38.645Z,8.95
2023-05-18T00:11:07.257Z,8.83
2023-05-18T00:13:33.859Z,8.80
2023-05-18T00:16:01.285Z,8.72
2023-05-18T00:18:28.251Z,8.51
2023-05-18T00:20:59.012Z,8.75
2023-05-18T00:23:33.137Z,8.80
2023-05-18T00:26:00.871Z,8.76
2023-05-18T00:28:28.406Z,8.81
2023-05-18T00:30:55.816Z,8.71
2023-05-18T00:33:23.326Z,8.87
2023-05-18T00:35:50.672Z,8.92
2023-05-18T00:38:17.842Z,8.88
2023-05-18T00:40:44.754Z,8.98
2023-05-18T00:43:11.672Z,9.04
2023-05-18T00:45:38.530Z,9.05
2023-05-18T00:48:05.479Z,9.08
2023-05-18T00:50:32.350Z,9.13
2023-05-18T00:52:59.666Z,9.18
2023-05-18T00:55:28.552Z,9.23
2023-05-18T00:57:56.901Z,9.29
2023-05-18T01:00:23.898Z,9.32
2023-05-18T01:02:51.326Z,9.35
2023-05-18T01:05:30.285Z,9.23
2023-05-18T01:07:57.956Z,9.35
2023-05-18T01:10:24.806Z,9.33
2023-05-18T01:12:51.240Z,9.46
2023-05-18T01:15:33.975Z,9.37
2023-05-18T01:18:15.174Z,9.51
2023-05-18T01:20:48.990Z,9.42
2023-05-18T01:23:54.991Z,9.26
2023-05-18T01:26:42.662Z,9.48
2023-05-18T01:29:12.939Z,9.41
2023-05-18T01:31:42.169Z,9.63
2023-05-18T01:34:11.789Z,9.29
2023-05-18T01:36:38.360Z,9.41
2023-05-18T01:39:05.417Z,9.39
2023-05-18T01:41:37.084Z,9.51
2023-05-18T01:44:09.530Z,9.52
2023-05-18T01:46:59.360Z,9.58
2023-05-18T01:49:53.198Z,9.58
2023-05-18T01:52:44.622Z,9.56
2023-05-18T01:55:18.722Z,8.96
2023-05-18T01:57:48.357Z,9.56
2023-05-18T02:00:16.783Z,9.08
2023-05-18T02:02:43.998Z,9.35
2023-05-18T02:05:13.482Z,9.40
2023-05-18T02:07:47.475Z,9.59
2023-05-18T02:10:14.805Z,9.61
2023-05-18T02:12:41.551Z,9.41
2023-05-18T02:15:08.598Z,9.62
2023-05-18T02:17:38.152Z,9.59
2023-05-18T02:20:10.252Z,9.52
2023-05-18T02:22:37.136Z,9.30
2023-05-18T02:25:05.115Z,9.60
2023-05-18T02:27:36.098Z,9.61
2023-05-18T02:30:05.169Z,9.60
2023-05-18T02:35:09.087Z,9.56
2023-05-18T02:37:39.840Z,9.57
2023-05-18T02:40:16.314Z,9.55
2023-05-18T02:42:42.920Z,9.38
2023-05-18T02:45:09.708Z,9.56
2023-05-18T02:47:36.317Z,9.55
2023-05-18T02:50:03.033Z,9.53
2023-05-18T02:52:29.539Z,9.54
2023-05-18T02:54:56.237Z,9.50
2023-05-18T02:57:22.837Z,9.41
2023-05-18T02:59:49.401Z,9.53
2023-05-18T03:02:16.505Z,9.53
2023-05-18T03:04:43.216Z,9.53
2023-05-18T03:07:10.444Z,9.39
2023-05-18T03:09:37.349Z,9.49
2023-05-18T03:12:04.268Z,9.51
2023-05-18T03:14:30.897Z,9.31
2023-05-18T03:16:57.917Z,9.43
2023-05-18T03:19:27.032Z,9.26
2023-05-18T03:21:53.679Z,9.50
2023-05-18T03:24:20.458Z,9.13
2023-05-18T03:26:47.062Z,9.43
2023-05-18T03:29:13.741Z,9.32
2023-05-18T03:31:41.017Z,9.49
2023-05-18T03:34:07.688Z,9.50
2023-05-18T03:36:35.596Z,9.49
2023-05-18T03:39:02.426Z,9.52
2023-05-18T03:41:29.960Z,9.53
2023-05-18T03:43:56.623Z,9.45
2023-05-18T03:46:23.555Z,9.53
2023-05-18T03:48:50.588Z,9.56
2023-05-18T03:51:17.136Z,9.61
2023-05-18T03:53:43.979Z,9.63
2023-05-18T03:56:10.587Z,9.66
2023-05-18T03:58:37.098Z,9.63
2023-05-18T04:01:04.524Z,9.72
2023-05-18T04:03:31.352Z,9.74
2023-05-18T04:05:57.916Z,9.61
2023-05-18T04:08:25.765Z,9.79
2023-05-18T04:10:52.544Z,9.85
2023-05-18T04:13:19.092Z,9.82
2023-05-18T04:15:46.066Z,9.90
2023-05-18T04:18:13.665Z,9.83
2023-05-18T04:20:41.641Z,9.89
2023-05-18T04:23:10.073Z,9.76
2023-05-18T04:25:39.629Z,9.85
2023-05-18T04:28:06.138Z,9.98
2023-05-18T04:30:32.993Z,9.99
2023-05-18T04:33:00.567Z,9.96
2023-05-18T04:35:27.986Z,10.06
2023-05-18T04:37:54.690Z,10.13
2023-05-18T04:40:21.410Z,10.20
2023-05-18T04:42:48.942Z,10.23
2023-05-18T04:45:17.207Z,10.27
2023-05-18T04:47:46.758Z,10.31
2023-05-18T04:50:15.203Z,10.41
2023-05-18T04:52:48.128Z,10.45
2023-05-18T04:55:16.593Z,10.49
2023-05-18T04:57:44.847Z,10.54
2023-05-18T05:00:13.078Z,10.35
2023-05-18T05:02:40.504Z,10.59
2023-05-18T05:05:07.583Z,10.53
2023-05-18T05:07:34.175Z,10.64
2023-05-18T05:10:00.682Z,10.68
2023-05-18T05:12:27.131Z,10.69
2023-05-18T05:14:54.193Z,10.79
2023-05-18T05:17:20.722Z,10.85
2023-05-18T05:19:47.367Z,10.91
2023-05-18T05:22:14.627Z,10.97
2023-05-18T05:24:41.150Z,10.77
2023-05-18T05:27:07.616Z,10.75
2023-05-18T05:29:34.105Z,11.06
2023-05-18T05:32:01.041Z,11.16
2023-05-18T05:34:27.656Z,11.16
2023-05-18T05:36:54.154Z,11.17
2023-05-18T05:39:20.754Z,11.18
2023-05-18T05:41:47.236Z,11.23
2023-05-18T05:44:13.684Z,11.27
2023-05-18T05:46:40.230Z,11.32
2023-05-18T05:49:07.181Z,11.31
2023-05-18T05:51:33.695Z,11.30
2023-05-18T05:54:00.296Z,11.33
2023-05-18T05:56:26.808Z,11.35
2023-05-18T05:58:53.426Z,11.39
2023-05-18T06:01:19.881Z,11.34
2023-05-18T06:03:46.488Z,11.31
2023-05-18T06:06:13.386Z,11.44
2023-05-18T06:08:40.031Z,11.49
2023-05-18T06:11:08.232Z,11.52
2023-05-18T06:13:36.486Z,11.56
2023-05-18T06:16:03.259Z,11.57
2023-05-18T06:18:29.862Z,11.46
2023-05-18T06:20:57.044Z,11.69
2023-05-18T06:23:23.715Z,11.78
2023-05-18T06:25:50.263Z,11.60
2023-05-18T06:28:16.758Z,11.89
2023-05-18T06:30:43.580Z,11.96
2023-05-18T06:33:10.275Z,11.96
2023-05-18T06:35:37.056Z,12.01
2023-05-18T06:38:03.718Z,12.08
2023-05-18T06:40:30.193Z,12.08
2023-05-18T06:42:56.748Z,12.13
2023-05-18T06:45:23.251Z,12.12
2023-05-18T06:47:50.059Z,12.13
2023-05-18T06:50:16.658Z,12.15
2023-05-18T06:52:44.393Z,11.98
2023-05-18T06:55:11.063Z,12.23
2023-05-18T06:57:37.606Z,12.27
2023-05-18T07:00:07.232Z,12.22
2023-05-18T07:02:33.837Z,12.32
2023-05-18T07:05:01.518Z,12.31
2023-05-18T07:07:28.066Z,12.42
2023-05-18T07:09:54.969Z,12.49
2023-05-18T07:12:22.570Z,12.52
2023-05-18T07:14:49.149Z,12.58
2023-05-18T07:17:15.708Z,12.58
2023-05-18T07:19:42.193Z,12.31
2023-05-18T07:22:08.956Z,12.73
2023-05-18T07:24:38.520Z,12.66
2023-05-18T07:27:05.791Z,12.88
2023-05-18T07:29:32.409Z,13.11
2023-05-18T07:31:58.983Z,13.29
2023-05-18T07:34:27.272Z,13.47
2023-05-18T07:36:53.985Z,13.55
2023-05-18T07:39:20.739Z,13.76
2023-05-18T07:41:49.465Z,14.18
2023-05-18T07:44:16.091Z,14.19
2023-05-18T07:46:43.535Z,14.25
2023-05-18T07:49:10.343Z,14.34
2023-05-18T07:51:36.850Z,14.41
2023-05-18T07:54:03.525Z,14.37
2023-05-18T07:56:30.386Z,14.33
2023-05-18T07:58:57.165Z,14.36
2023-05-18T08:01:27.522Z,14.38
2023-05-18T08:03:54.750Z,14.28
2023-05-18T08:06:21.391Z,14.20
2023-05-18T08:08:48.152Z,14.31
2023-05-18T08:11:14.745Z,13.89
2023-05-18T08:13:41.239Z,14.39
2023-05-18T08:16:12.293Z,14.42
2023-05-18T08:18:39.701Z,14.59
2023-05-18T08:21:10.096Z,14.52
2023-05-18T08:23:36.956Z,14.90
2023-05-18T08:26:03.793Z,14.73
2023-05-18T08:28:31.106Z,15.16
2023-05-18T08:30:57.939Z,15.06
2023-05-18T08:33:24.568Z,15.35
2023-05-18T08:35:51.405Z,15.47
2023-05-18T08:38:18.098Z,15.61
2023-05-18T08:41:15.061Z,15.75
2023-05-18T08:43:45.819Z,15.80
2023-05-18T08:46:32.008Z,15.48
2023-05-18T08:48:59.401Z,15.92
2023-05-18T08:51:29.468Z,15.88
2023-05-18T08:53:56.911Z,15.89
2023-05-18T08:56:24.851Z,15.89
2023-05-18T08:58:56.189Z,15.58
2023-05-18T09:01:28.506Z,15.78
2023-05-18T09:03:59.762Z,15.75
2023-05-18T09:06:28.319Z,15.70
2023-05-18T09:08:59.402Z,15.60
2023-05-18T09:11:27.408Z,15.58
2023-05-18T09:13:55.050Z,15.25
2023-05-18T09:16:21.742Z,15.42
2023-05-18T09:18:48.402Z,15.38
2023-05-18T09:21:14.862Z,15.41
2023-05-18T09:23:42.218Z,15.56
2023-05-18T09:26:10.153Z,15.76
2023-05-18T09:28:41.943Z,16.02
2023-05-18T09:31:12.687Z,16.28
2023-05-18T09:33:40.674Z,16.41
2023-05-18T09:36:08.652Z,16.99
2023-05-18T09:38:39.458Z,17.24
2023-05-18T09:41:17.240Z,17.69
2023-05-18T09:43:45.388Z,17.83
2023-05-18T09:46:13.360Z,17.90
2023-05-18T09:48:45.929Z,18.07
2023-05-18T09:51:16.618Z,18.14
2023-05-18T09:53:55.468Z,18.21
2023-05-18T09:56:24.060Z,18.29
2023-05-18T09:58:50.661Z,18.41
2023-05-18T10:01:17.329Z,18.51
2023-05-18T10:03:45.657Z,18.63
2023-05-18T10:06:17.267Z,18.85
2023-05-18T10:08:45.499Z,19.05
2023-05-18T10:11:12.305Z,19.40
2023-05-18T10:13:38.965Z,19.49
2023-05-18T10:16:07.793Z,19.77
2023-05-18T10:18:37.578Z,19.99
2023-05-18T10:21:07.009Z,20.26
2023-05-18T10:23:35.693Z,20.51
2023-05-18T10:26:07.125Z,20.36
2023-05-18T10:28:38.711Z,20.78
2023-05-18T10:31:06.688Z,20.72
2023-05-18T10:33:35.688Z,20.97
2023-05-18T10:36:04.310Z,21.04
2023-05-18T10:38:31.786Z,21.18
2023-05-18T10:41:02.684Z,21.07
2023-05-18T10:43:29.227Z,20.93
2023-05-18T10:46:00.885Z,20.97
2023-05-18T10:48:29.549Z,20.83
2023-05-18T10:50:58.084Z,20.79
2023-05-18T10:53:29.835Z,20.60
2023-05-18T10:55:56.374Z,20.82
2023-05-18T10:58:26.325Z,20.60
2023-05-18T11:01:07.706Z,20.63
2023-05-18T11:03:34.338Z,20.25
2023-05-18T11:06:08.822Z,20.30
2023-05-18T11:08:43.610Z,19.93
2023-05-18T11:11:10.443Z,20.02
2023-05-18T11:13:43.512Z,20.10
2023-05-18T11:16:10.449Z,19.99
2023-05-18T11:18:43.088Z,20.38
2023-05-18T11:21:24.978Z,20.55
2023-05-18T11:24:21.279Z,20.66
2023-05-18T11:26:49.196Z,20.58
2023-05-18T11:29:36.581Z,20.71
2023-05-18T11:32:04.865Z,20.78
2023-05-18T11:34:39.430Z,20.80
2023-05-18T11:37:10.003Z,20.27
2023-05-18T11:39:44.920Z,20.67
2023-05-18T11:42:18.818Z,20.73
2023-05-18T11:44:52.829Z,20.90
2023-05-18T11:47:19.805Z,21.02
2023-05-18T11:49:48.516Z,21.12
2023-05-18T11:52:25.789Z,21.36
2023-05-18T11:54:53.257Z,21.44
2023-05-18T11:57:42.198Z,21.61
2023-05-18T12:00:15.075Z,21.51
2023-05-18T12:02:48.503Z,21.32
2023-05-18T12:05:15.443Z,21.09
2023-05-18T12:07:42.210Z,21.03
2023-05-18T12:10:11.629Z,20.58
2023-05-18T12:12:40.019Z,20.90
2023-05-18T12:15:08.726Z,20.80
2023-05-18T12:17:45.680Z,20.77
2023-05-18T12:20:14.463Z,20.60
2023-05-18T12:22:42.635Z,20.23
2023-05-18T12:25:10.029Z,20.25
2023-05-18T12:27:40.736Z,20.23
2023-05-18T12:30:38.642Z,20.36
2023-05-18T12:33:06.849Z,20.43
2023-05-18T12:35:33.774Z,20.55
2023-05-18T12:38:01.412Z,20.45
2023-05-18T12:40:40.229Z,20.49
2023-05-18T12:43:06.694Z,20.41
2023-05-18T12:45:34.268Z,20.38
2023-05-18T12:48:08.640Z,20.57
2023-05-18T12:50:37.050Z,20.47
2023-05-18T12:53:03.555Z,20.82
2023-05-18T12:55:32.133Z,21.01
2023-05-18T12:58:02.462Z,21.18
2023-05-18T13:00:35.675Z,21.54
2023-05-18T13:03:12.775Z,21.16
2023-05-18T13:05:44.104Z,20.94
2023-05-18T13:08:17.117Z,20.89
2023-05-18T13:10:45.063Z,20.83
2023-05-18T13:13:15.448Z,20.92
2023-05-18T13:15:43.968Z,20.87
2023-05-18T13:18:11.699Z,20.92
2023-05-18T13:20:50.924Z,20.93
2023-05-18T13:23:19.679Z,20.91
2023-05-18T13:25:48.822Z,20.85
2023-05-18T13:28:17.965Z,20.70
2023-05-18T13:30:47.106Z,20.84
2023-05-18T13:33:13.916Z,21.00
2023-05-18T13:35:42.179Z,21.02
2023-05-18T13:38:10.063Z,21.02
2023-05-18T13:40:37.664Z,21.10
2023-05-18T13:43:06.107Z,21.19
2023-05-18T13:45:33.093Z,21.33
2023-05-18T13:47:59.779Z,21.40
2023-05-18T13:50:26.607Z,21.46
2023-05-18T13:52:54.553Z,21.64
2023-05-18T13:55:21.235Z,21.81
2023-05-18T13:57:47.767Z,21.84
2023-05-18T14:00:16.060Z,21.75
2023-05-18T14:02:44.377Z,21.73
2023-05-18T14:05:12.080Z,21.79
2023-05-18T14:07:40.245Z,21.72
2023-05-18T14:10:08.045Z,21.97
2023-05-18T14:12:34.893Z,21.86
2023-05-18T14:15:02.119Z,21.74
2023-05-18T14:17:31.242Z,21.64
2023-05-18T14:19:57.888Z,21.62
2023-05-18T14:22:26.220Z,21.72
2023-05-18T14:24:53.651Z,21.83
2023-05-18T14:27:22.896Z,21.84
2023-05-18T14:29:50.835Z,21.74
2023-05-18T14:32:18.053Z,21.74
2023-05-18T14:34:44.492Z,21.62
2023-05-18T14:37:10.901Z,21.35
2023-05-18T14:39:37.881Z,21.52
2023-05-18T14:42:05.260Z,21.44
2023-05-18T14:44:31.898Z,21.66
2023-05-18T14:46:58.462Z,21.66
2023-05-18T14:49:24.910Z,21.62
2023-05-18T14:51:51.428Z,21.61
2023-05-18T14:54:19.049Z,21.65
2023-05-18T14:56:45.777Z,21.59
2023-05-18T14:59:12.456Z,21.62
2023-05-18T15:01:39.519Z,21.59
2023-05-18T15:04:06.139Z,21.44
2023-05-18T15:06:33.396Z,21.63
2023-05-18T15:08:59.930Z,21.61
2023-05-18T15:11:26.467Z,21.74
2023-05-18T15:13:52.946Z,21.84
2023-05-18T15:16:19.941Z,22.08
2023-05-18T15:18:47.071Z,22.16
2023-05-18T15:21:13.736Z,22.42
2023-05-18T15:23:40.224Z,22.39
2023-05-18T15:26:08.951Z,22.75
2023-05-18T15:28:35.972Z,22.85
2023-05-18T15:31:02.479Z,22.86
2023-05-18T15:33:28.999Z,22.57
2023-05-18T15:35:55.662Z,22.93
2023-05-18T15:38:22.201Z,22.86
2023-05-18T15:40:50.321Z,22.59
2023-05-18T15:43:17.216Z,23.09
2023-05-18T15:45:43.769Z,23.16
2023-05-18T15:48:10.607Z,23.30
2023-05-18T15:50:37.235Z,23.40
2023-05-18T15:53:03.807Z,23.34
2023-05-18T15:55:30.371Z,23.64
2023-05-18T15:57:56.853Z,23.57
2023-05-18T16:00:23.775Z,23.76
2023-05-18T16:02:50.445Z,24.03
2023-05-18T16:05:17.075Z,24.13
2023-05-18T16:07:43.711Z,24.01
2023-05-18T16:10:10.538Z,24.30
2023-05-18T16:12:37.129Z,24.36
2023-05-18T16:15:05.355Z,24.42
2023-05-18T16:17:31.829Z,24.47
2023-05-18T16:19:58.413Z,24.54
2023-05-18T16:22:24.852Z,24.51
2023-05-18T16:24:51.531Z,24.43
2023-05-18T16:27:18.065Z,24.03
2023-05-18T16:29:44.542Z,23.79
2023-05-18T16:32:11.347Z,23.60
2023-05-18T16:34:37.829Z,23.37
2023-05-18T16:37:04.471Z,23.21
2023-05-18T16:39:30.994Z,22.73
2023-05-18T16:41:57.513Z,22.86
2023-05-18T16:44:23.957Z,22.77
2023-05-18T16:46:50.573Z,22.74
2023-05-18T16:49:17.394Z,22.85
2023-05-18T16:51:44.013Z,22.83
2023-05-18T16:54:10.736Z,22.94
2023-05-18T16:56:37.295Z,23.05
2023-05-18T16:59:04.049Z,23.15
2023-05-18T17:01:31.227Z,23.07
2023-05-18T17:03:57.912Z,23.05
2023-05-18T17:06:25.615Z,22.92
2023-05-18T17:08:57.453Z,22.81
2023-05-18T17:11:26.924Z,22.47
2023-05-18T17:13:53.705Z,22.51
2023-05-18T17:16:22.122Z,22.24
2023-05-18T17:18:49.026Z,22.39
2023-05-18T17:21:16.107Z,22.31
2023-05-18T17:23:42.644Z,22.44
2023-05-18T17:26:09.186Z,22.33
2023-05-18T17:28:35.988Z,22.33
2023-05-18T17:31:02.671Z,22.27
2023-05-18T17:33:29.195Z,22.33
2023-05-18T17:35:55.767Z,22.37
2023-05-18T17:38:22.672Z,22.39
2023-05-18T17:40:49.210Z,22.40
2023-05-18T17:43:15.683Z,22.45
2023-05-18T17:45:42.203Z,22.40
2023-05-18T17:48:08.872Z,22.07
2023-05-18T17:50:37.632Z,22.29
2023-05-18T17:53:04.915Z,22.10
2023-05-18T17:55:31.956Z,21.76
2023-05-18T17:58:01.002Z,21.81
2023-05-18T18:00:27.668Z,21.74
2023-05-18T18:02:55.140Z,21.68
2023-05-18T18:05:22.147Z,21.62
2023-05-18T18:07:48.629Z,21.61
2023-05-18T18:10:15.225Z,21.53
2023-05-18T18:12:42.661Z,21.43
2023-05-18T18:15:10.048Z,20.99
2023-05-18T18:17:36.651Z,21.04
2023-05-18T18:20:05.634Z,21.18
2023-05-18T18:22:33.119Z,20.93
2023-05-18T18:25:01.578Z,20.85
2023-05-18T18:27:28.007Z,20.70
2023-05-18T18:29:54.813Z,20.48
2023-05-18T18:32:21.294Z,20.23
2023-05-18T18:34:47.709Z,20.06
2023-05-18T18:37:14.158Z,19.80
2023-05-18T18:39:40.756Z,19.47
2023-05-18T18:42:07.318Z,18.92
2023-05-18T18:44:33.763Z,18.64
2023-05-18T18:47:00.254Z,18.64
2023-05-18T18:49:26.830Z,18.10
2023-05-18T18:51:53.599Z,17.95
2023-05-18T18:54:20.136Z,17.90
2023-05-18T18:56:46.638Z,17.64
2023-05-18T18:59:13.102Z,17.28
2023-05-18T19:01:39.762Z,17.13
2023-05-18T19:04:06.342Z,16.98
2023-05-18T19:06:34.431Z,16.95
2023-05-18T19:09:00.890Z,16.37
2023-05-18T19:11:27.316Z,16.52
2023-05-18T19:13:53.852Z,16.44
2023-05-18T19:16:21.525Z,16.26
2023-05-18T19:18:48.317Z,16.02
2023-05-18T19:21:15.068Z,15.93
2023-05-18T19:23:41.590Z,15.81
2023-05-18T19:26:08.906Z,15.67
2023-05-18T19:28:35.557Z,15.19
2023-05-18T19:31:05.318Z,15.14
2023-05-18T19:33:32.130Z,15.12
2023-05-18T19:35:58.591Z,15.09
2023-05-18T19:38:25.070Z,14.77
2023-05-18T19:40:51.497Z,14.78
2023-05-18T19:43:17.974Z,14.29
2023-05-18T19:45:44.505Z,14.47
2023-05-18T19:48:12.452Z,14.32
2023-05-18T19:50:38.956Z,14.24
2023-05-18T19:53:05.636Z,14.04
2023-05-18T19:55:32.634Z,13.62
2023-05-18T19:57:59.283Z,13.73
2023-05-18T20:00:26.443Z,13.62
2023-05-18T20:02:53.123Z,13.62
2023-05-18T20:05:19.754Z,13.36
2023-05-18T20:07:46.296Z,13.41
2023-05-18T20:10:12.849Z,13.04
2023-05-18T20:12:40.983Z,13.21
2023-05-18T20:15:08.695Z,13.10
2023-05-18T20:17:36.541Z,13.00
2023-05-18T20:20:06.084Z,12.88
2023-05-18T20:22:32.576Z,12.78
2023-05-18T20:25:01.111Z,12.71
2023-05-18T20:27:28.087Z,12.27
2023-05-18T20:29:56.280Z,12.40
2023-05-18T20:32:22.987Z,12.18
2023-05-18T20:34:49.572Z,12.08
2023-05-18T20:37:16.107Z,11.81
2023-05-18T20:39:50.253Z,12.05
2023-05-18T20:42:21.946Z,11.97
2023-05-18T20:44:51.227Z,11.91
2023-05-18T20:47:21.788Z,11.70
2023-05-18T20:49:48.533Z,11.82
2023-05-18T20:52:15.254Z,11.70
2023-05-18T20:54:41.777Z,11.70
2023-05-18T20:57:08.470Z,11.61
2023-05-18T20:59:35.007Z,11.56
2023-05-18T21:02:01.559Z,11.45
2023-05-18T21:04:28.267Z,11.41
2023-05-18T21:06:54.794Z,11.32
2023-05-18T21:09:21.543Z,11.10
2023-05-18T21:11:48.426Z,11.17
2023-05-18T21:14:15.479Z,11.16
2023-05-18T21:16:41.964Z,11.06
2023-05-18T21:19:10.988Z,11.04
2023-05-18T21:21:37.607Z,10.93
2023-05-18T21:24:04.173Z,10.81
2023-05-18T21:26:30.819Z,10.84
2023-05-18T21:28:57.593Z,10.77
2023-05-18T21:31:24.094Z,10.55
2023-05-18T21:33:52.702Z,10.64
2023-05-18T21:36:33.796Z,10.58
2023-05-18T21:39:05.474Z,10.50
2023-05-18T21:41:35.114Z,10.39
2023-05-18T21:44:01.731Z,10.34
2023-05-18T21:46:28.736Z,10.26
2023-05-18T21:48:59.726Z,10.17
2023-05-18T21:51:26.301Z,9.93
2023-05-18T21:53:52.810Z,10.00
2023-05-18T21:56:19.652Z,9.88
2023-05-18T21:58:46.308Z,9.78
2023-05-18T22:01:13.271Z,9.73
2023-05-18T22:03:40.352Z,9.67
2023-05-18T22:06:07.190Z,9.52
2023-05-18T22:08:33.602Z,9.54
2023-05-18T22:11:00.048Z,9.45
2023-05-18T22:13:26.722Z,9.41
2023-05-18T22:15:53.213Z,9.12
2023-05-18T22:18:20.988Z,9.13
2023-05-18T22:20:47.437Z,9.21
2023-05-18T22:23:13.947Z,8.86
2023-05-18T22:25:40.680Z,9.13
2023-05-18T22:28:07.186Z,8.94
2023-05-18T22:30:33.844Z,9.02
2023-05-18T22:33:00.561Z,8.97
2023-05-18T22:35:27.367Z,8.89
2023-05-18T22:37:53.807Z,8.74
2023-05-18T22:40:20.411Z,8.69
2023-05-18T22:42:46.896Z,8.76
2023-05-18T22:45:13.996Z,8.67
2023-05-18T22:47:40.501Z,8.66
2023-05-18T22:50:07.756Z,8.42
2023-05-18T22:52:34.860Z,8.52
2023-05-18T22:55:01.685Z,8.46
2023-05-18T22:57:28.173Z,8.19
2023-05-18T22:59:54.738Z,8.31
2023-05-18T23:02:21.169Z,8.34
2023-05-18T23:04:47.642Z,8.27
2023-05-18T23:07:14.164Z,8.13
2023-05-18T23:09:40.621Z,8.13
2023-05-18T23:12:07.613Z,8.12
2023-05-18T23:14:34.069Z,8.05
2023-05-18T23:17:00.821Z,7.92
2023-05-18T23:19:27.548Z,7.86
2023-05-18T23:21:54.475Z,7.93
2023-05-18T23:24:21.720Z,7.87
2023-05-18T23:26:48.606Z,7.86
2023-05-18T23:29:15.119Z,7.62
2023-05-18T23:31:41.571Z,7.76
2023-05-18T23:34:08.338Z,7.63
2023-05-18T23:36:35.164Z,7.60
2023-05-18T23:39:02.266Z,7.60
2023-05-18T23:41:30.771Z,7.56
2023-05-18T23:43:58.227Z,7.51
2023-05-18T23:46:25.426Z,7.34
2023-05-18T23:48:52.409Z,7.43
2023-05-18T23:51:23.007Z,7.29
2023-05-18T23:53:51.333Z,7.30
2023-05-18T23:56:18.284Z,7.14
2023-05-18T23:58:46.677Z,7.20
